sensor_id;sensor_type;location;lat;lon;timestamp;temperature;humidity
64209;DHT22;50527;52.414;13.226;2024-01-07T00:01:23;0.30;85.10
64209;DHT22;50527;52.414;13.226;2024-01-07T00:03:51;0.30;83.90
64209;DHT22;50527;52.414;13.226;2024-01-07T00:06:16;0.20;82.50
64209;DHT22;50527;52.414;13.226;2024-01-07T00:08:42;0.20;84.50
64209;DHT22;50527;52.414;13.226;2024-01-07T00:11:07;0.20;84.70
64209;DHT22;50527;52.414;13.226;2024-01-07T00:13:33;0.20;84.00
64209;DHT22;50527;52.414;13.226;2024-01-07T00:15:58;0.30;83.10
64209;DHT22;50527;52.414;13.226;2024-01-07T00:18:24;0.20;82.90
64209;DHT22;50527;52.414;13.226;2024-01-07T00:20:50;0.20;83.40
64209;DHT22;50527;52.414;13.226;2024-01-07T00:23:15;0.20;83.40
64209;DHT22;50527;52.414;13.226;2024-01-07T00:25:41;0.20;85.10
64209;DHT22;50527;52.414;13.226;2024-01-07T00:28:06;0.20;84.70
64209;DHT22;50527;52.414;13.226;2024-01-07T00:30:32;0.20;84.40
64209;DHT22;50527;52.414;13.226;2024-01-07T00:32:57;0.20;83.60
64209;DHT22;50527;52.414;13.226;2024-01-07T00:35:23;0.20;82.60
64209;DHT22;50527;52.414;13.226;2024-01-07T00:37:48;0.20;84.00
64209;DHT22;50527;52.414;13.226;2024-01-07T00:40:14;0.10;83.10
64209;DHT22;50527;52.414;13.226;2024-01-07T00:42:39;0.10;83.60
64209;DHT22;50527;52.414;13.226;2024-01-07T00:45:05;0.10;84.10
64209;DHT22;50527;52.414;13.226;2024-01-07T00:47:31;0.20;84.20
64209;DHT22;50527;52.414;13.226;2024-01-07T00:49:56;0.10;84.00
64209;DHT22;50527;52.414;13.226;2024-01-07T00:52:22;0.20;84.10
64209;DHT22;50527;52.414;13.226;2024-01-07T00:54:48;0.20;83.80
64209;DHT22;50527;52.414;13.226;2024-01-07T00:57:14;0.20;84.50
64209;DHT22;50527;52.414;13.226;2024-01-07T00:59:39;0.20;84.80
64209;DHT22;50527;52.414;13.226;2024-01-07T01:02:05;0.20;84.30
64209;DHT22;50527;52.414;13.226;2024-01-07T01:04:30;0.10;83.50
64209;DHT22;50527;52.414;13.226;2024-01-07T01:06:56;0.10;83.30
64209;DHT22;50527;52.414;13.226;2024-01-07T01:09:21;0.10;84.10
64209;DHT22;50527;52.414;13.226;2024-01-07T01:11:47;0.00;82.80
64209;DHT22;50527;52.414;13.226;2024-01-07T01:14:12;0.00;82.70
64209;DHT22;50527;52.414;13.226;2024-01-07T01:16:38;0.00;82.80
64209;DHT22;50527;52.414;13.226;2024-01-07T01:19:03;0.00;83.20
64209;DHT22;50527;52.414;13.226;2024-01-07T01:21:29;0.00;82.30
64209;DHT22;50527;52.414;13.226;2024-01-07T01:23:54;-0.10;81.70
64209;DHT22;50527;52.414;13.226;2024-01-07T01:26:20;-0.20;81.80
64209;DHT22;50527;52.414;13.226;2024-01-07T01:28:45;-0.10;81.80
64209;DHT22;50527;52.414;13.226;2024-01-07T01:31:14;-0.20;82.10
64209;DHT22;50527;52.414;13.226;2024-01-07T01:33:40;-0.20;82.20
64209;DHT22;50527;52.414;13.226;2024-01-07T01:36:06;-0.20;81.50
64209;DHT22;50527;52.414;13.226;2024-01-07T01:38:31;-0.20;81.70
64209;DHT22;50527;52.414;13.226;2024-01-07T01:40:57;-0.20;80.00
64209;DHT22;50527;52.414;13.226;2024-01-07T01:43:26;-0.30;81.10
64209;DHT22;50527;52.414;13.226;2024-01-07T01:45:53;-0.30;80.30
64209;DHT22;50527;52.414;13.226;2024-01-07T01:48:19;-0.30;79.70
64209;DHT22;50527;52.414;13.226;2024-01-07T01:50:46;-0.30;79.10
64209;DHT22;50527;52.414;13.226;2024-01-07T01:53:12;-0.40;79.80
64209;DHT22;50527;52.414;13.226;2024-01-07T01:55:37;-0.40;79.50
64209;DHT22;50527;52.414;13.226;2024-01-07T01:58:04;-0.40;79.40
64209;DHT22;50527;52.414;13.226;2024-01-07T02:00:32;-0.40;79.00
64209;DHT22;50527;52.414;13.226;2024-01-07T02:02:58;-0.50;80.00
64209;DHT22;50527;52.414;13.226;2024-01-07T02:05:26;-0.40;80.00
64209;DHT22;50527;52.414;13.226;2024-01-07T02:07:52;-0.40;79.50
64209;DHT22;50527;52.414;13.226;2024-01-07T02:10:18;-0.40;79.40
64209;DHT22;50527;52.414;13.226;2024-01-07T02:12:43;-0.40;79.50
64209;DHT22;50527;52.414;13.226;2024-01-07T02:15:08;-0.50;78.90
64209;DHT22;50527;52.414;13.226;2024-01-07T02:17:34;-0.50;79.30
64209;DHT22;50527;52.414;13.226;2024-01-07T02:20:00;-0.50;79.10
64209;DHT22;50527;52.414;13.226;2024-01-07T02:22:25;-0.50;78.20
64209;DHT22;50527;52.414;13.226;2024-01-07T02:24:50;-0.60;78.10
64209;DHT22;50527;52.414;13.226;2024-01-07T02:27:16;-0.60;78.70
64209;DHT22;50527;52.414;13.226;2024-01-07T02:29:41;-0.60;78.40
64209;DHT22;50527;52.414;13.226;2024-01-07T02:32:07;-0.60;78.40
64209;DHT22;50527;52.414;13.226;2024-01-07T02:34:32;-0.50;78.80
64209;DHT22;50527;52.414;13.226;2024-01-07T02:36:58;-0.60;78.70
64209;DHT22;50527;52.414;13.226;2024-01-07T02:39:23;-0.60;77.70
64209;DHT22;50527;52.414;13.226;2024-01-07T02:41:49;-0.60;80.00
64209;DHT22;50527;52.414;13.226;2024-01-07T02:44:15;-0.60;78.60
64209;DHT22;50527;52.414;13.226;2024-01-07T02:46:40;-0.70;78.30
64209;DHT22;50527;52.414;13.226;2024-01-07T02:49:06;-0.70;78.50
64209;DHT22;50527;52.414;13.226;2024-01-07T02:51:31;-0.60;79.90
64209;DHT22;50527;52.414;13.226;2024-01-07T02:53:57;-0.60;79.50
64209;DHT22;50527;52.414;13.226;2024-01-07T02:56:22;-0.70;78.00
64209;DHT22;50527;52.414;13.226;2024-01-07T02:58:48;-0.80;77.90
64209;DHT22;50527;52.414;13.226;2024-01-07T03:01:13;-0.80;78.20
64209;DHT22;50527;52.414;13.226;2024-01-07T03:03:39;-0.80;78.50
64209;DHT22;50527;52.414;13.226;2024-01-07T03:06:04;-0.80;79.40
64209;DHT22;50527;52.414;13.226;2024-01-07T03:08:30;-0.90;78.60
64209;DHT22;50527;52.414;13.226;2024-01-07T03:10:55;-0.90;77.90
64209;DHT22;50527;52.414;13.226;2024-01-07T03:13:21;-0.90;77.60
64209;DHT22;50527;52.414;13.226;2024-01-07T03:15:46;-0.90;78.90
64209;DHT22;50527;52.414;13.226;2024-01-07T03:18:12;-1.00;79.30
64209;DHT22;50527;52.414;13.226;2024-01-07T03:20:37;-1.00;77.70
64209;DHT22;50527;52.414;13.226;2024-01-07T03:23:03;-1.10;78.40
64209;DHT22;50527;52.414;13.226;2024-01-07T03:25:28;-1.10;78.50
64209;DHT22;50527;52.414;13.226;2024-01-07T03:27:54;-1.10;78.20
64209;DHT22;50527;52.414;13.226;2024-01-07T03:30:19;-1.20;78.60
64209;DHT22;50527;52.414;13.226;2024-01-07T03:32:45;-1.20;79.00
64209;DHT22;50527;52.414;13.226;2024-01-07T03:35:10;-1.30;78.90
64209;DHT22;50527;52.414;13.226;2024-01-07T03:37:36;-1.30;79.30
64209;DHT22;50527;52.414;13.226;2024-01-07T03:40:02;-1.30;78.70
64209;DHT22;50527;52.414;13.226;2024-01-07T03:42:27;-1.30;79.30
64209;DHT22;50527;52.414;13.226;2024-01-07T03:44:53;-1.40;78.90
64209;DHT22;50527;52.414;13.226;2024-01-07T03:47:18;-1.30;78.70
64209;DHT22;50527;52.414;13.226;2024-01-07T03:49:44;-1.40;78.70
64209;DHT22;50527;52.414;13.226;2024-01-07T03:52:09;-1.40;78.90
64209;DHT22;50527;52.414;13.226;2024-01-07T03:54:35;-1.50;78.60
64209;DHT22;50527;52.414;13.226;2024-01-07T03:57:00;-1.50;79.30
64209;DHT22;50527;52.414;13.226;2024-01-07T03:59:26;-1.50;79.50
64209;DHT22;50527;52.414;13.226;2024-01-07T04:01:56;-1.50;79.70
64209;DHT22;50527;52.414;13.226;2024-01-07T04:04:22;-1.50;79.30
64209;DHT22;50527;52.414;13.226;2024-01-07T04:06:47;-1.50;78.60
64209;DHT22;50527;52.414;13.226;2024-01-07T04:09:13;-1.50;78.70
64209;DHT22;50527;52.414;13.226;2024-01-07T04:11:42;-1.50;79.10
64209;DHT22;50527;52.414;13.226;2024-01-07T04:14:08;-1.50;78.30
64209;DHT22;50527;52.414;13.226;2024-01-07T04:16:34;-1.60;78.50
64209;DHT22;50527;52.414;13.226;2024-01-07T04:18:59;-1.60;79.30
64209;DHT22;50527;52.414;13.226;2024-01-07T04:21:25;-1.60;78.90
64209;DHT22;50527;52.414;13.226;2024-01-07T04:23:50;-1.60;79.70
64209;DHT22;50527;52.414;13.226;2024-01-07T04:26:16;-1.60;80.10
64209;DHT22;50527;52.414;13.226;2024-01-07T04:28:42;-1.60;79.30
64209;DHT22;50527;52.414;13.226;2024-01-07T04:31:08;-1.70;78.70
64209;DHT22;50527;52.414;13.226;2024-01-07T04:33:34;-1.70;78.40
64209;DHT22;50527;52.414;13.226;2024-01-07T04:35:59;-1.70;77.70
64209;DHT22;50527;52.414;13.226;2024-01-07T04:38:29;-1.70;77.60
64209;DHT22;50527;52.414;13.226;2024-01-07T04:40:54;-1.70;78.00
64209;DHT22;50527;52.414;13.226;2024-01-07T04:43:20;-1.80;79.40
64209;DHT22;50527;52.414;13.226;2024-01-07T04:45:45;-1.80;79.40
64209;DHT22;50527;52.414;13.226;2024-01-07T04:48:11;-1.80;78.90
64209;DHT22;50527;52.414;13.226;2024-01-07T04:50:36;-1.70;78.10
64209;DHT22;50527;52.414;13.226;2024-01-07T04:53:02;-1.70;77.60
64209;DHT22;50527;52.414;13.226;2024-01-07T04:55:29;-1.70;77.50
64209;DHT22;50527;52.414;13.226;2024-01-07T04:57:55;-1.60;77.60
64209;DHT22;50527;52.414;13.226;2024-01-07T05:00:20;-1.60;77.20
64209;DHT22;50527;52.414;13.226;2024-01-07T05:02:46;-1.70;77.00
64209;DHT22;50527;52.414;13.226;2024-01-07T05:05:11;-1.70;78.20
64209;DHT22;50527;52.414;13.226;2024-01-07T05:07:37;-1.70;77.10
64209;DHT22;50527;52.414;13.226;2024-01-07T05:10:03;-1.70;77.20
64209;DHT22;50527;52.414;13.226;2024-01-07T05:12:28;-1.80;77.10
64209;DHT22;50527;52.414;13.226;2024-01-07T05:14:54;-1.80;77.40
64209;DHT22;50527;52.414;13.226;2024-01-07T05:17:19;-1.80;77.30
64209;DHT22;50527;52.414;13.226;2024-01-07T05:19:45;-1.70;77.70
64209;DHT22;50527;52.414;13.226;2024-01-07T05:22:10;-1.70;77.50
64209;DHT22;50527;52.414;13.226;2024-01-07T05:24:39;-1.80;78.30
64209;DHT22;50527;52.414;13.226;2024-01-07T05:27:05;-1.80;78.40
64209;DHT22;50527;52.414;13.226;2024-01-07T05:29:31;-1.80;77.80
64209;DHT22;50527;52.414;13.226;2024-01-07T05:31:59;-1.80;78.40
64209;DHT22;50527;52.414;13.226;2024-01-07T05:34:26;-1.80;78.10
64209;DHT22;50527;52.414;13.226;2024-01-07T05:36:51;-1.70;78.10
64209;DHT22;50527;52.414;13.226;2024-01-07T05:39:17;-1.70;78.00
64209;DHT22;50527;52.414;13.226;2024-01-07T05:41:42;-1.70;77.70
64209;DHT22;50527;52.414;13.226;2024-01-07T05:44:08;-1.70;77.80
64209;DHT22;50527;52.414;13.226;2024-01-07T05:46:34;-1.80;77.70
64209;DHT22;50527;52.414;13.226;2024-01-07T05:49:03;-1.80;79.20
64209;DHT22;50527;52.414;13.226;2024-01-07T05:51:28;-1.80;78.00
64209;DHT22;50527;52.414;13.226;2024-01-07T05:53:54;-1.80;78.30
64209;DHT22;50527;52.414;13.226;2024-01-07T05:56:19;-1.80;79.20
64209;DHT22;50527;52.414;13.226;2024-01-07T05:58:44;-1.80;79.10
64209;DHT22;50527;52.414;13.226;2024-01-07T06:01:10;-1.70;78.70
64209;DHT22;50527;52.414;13.226;2024-01-07T06:03:35;-1.80;78.50
64209;DHT22;50527;52.414;13.226;2024-01-07T06:06:01;-1.80;78.70
64209;DHT22;50527;52.414;13.226;2024-01-07T06:08:26;-1.80;78.70
64209;DHT22;50527;52.414;13.226;2024-01-07T06:10:52;-1.80;79.10
64209;DHT22;50527;52.414;13.226;2024-01-07T06:13:17;-1.80;79.20
64209;DHT22;50527;52.414;13.226;2024-01-07T06:15:43;-1.80;78.70
64209;DHT22;50527;52.414;13.226;2024-01-07T06:18:09;-1.80;79.50
64209;DHT22;50527;52.414;13.226;2024-01-07T06:20:34;-1.80;78.60
64209;DHT22;50527;52.414;13.226;2024-01-07T06:22:59;-1.70;78.50
64209;DHT22;50527;52.414;13.226;2024-01-07T06:25:25;-1.80;79.00
64209;DHT22;50527;52.414;13.226;2024-01-07T06:27:51;-1.70;77.90
64209;DHT22;50527;52.414;13.226;2024-01-07T06:30:17;-1.70;78.20
64209;DHT22;50527;52.414;13.226;2024-01-07T06:32:44;-1.70;78.30
64209;DHT22;50527;52.414;13.226;2024-01-07T06:35:11;-1.70;79.00
64209;DHT22;50527;52.414;13.226;2024-01-07T06:37:36;-1.60;78.50
64209;DHT22;50527;52.414;13.226;2024-01-07T06:40:02;-1.60;79.00
64209;DHT22;50527;52.414;13.226;2024-01-07T06:42:27;-1.60;79.50
64209;DHT22;50527;52.414;13.226;2024-01-07T06:44:53;-1.60;79.20
64209;DHT22;50527;52.414;13.226;2024-01-07T06:47:19;-1.60;78.50
64209;DHT22;50527;52.414;13.226;2024-01-07T06:49:44;-1.50;78.60
64209;DHT22;50527;52.414;13.226;2024-01-07T06:52:10;-1.60;78.40
64209;DHT22;50527;52.414;13.226;2024-01-07T06:54:36;-1.50;78.30
64209;DHT22;50527;52.414;13.226;2024-01-07T06:57:02;-1.50;78.10
64209;DHT22;50527;52.414;13.226;2024-01-07T06:59:28;-1.60;78.10
64209;DHT22;50527;52.414;13.226;2024-01-07T07:01:53;-1.60;78.00
64209;DHT22;50527;52.414;13.226;2024-01-07T07:04:21;-1.60;77.60
64209;DHT22;50527;52.414;13.226;2024-01-07T07:06:47;-1.60;78.20
64209;DHT22;50527;52.414;13.226;2024-01-07T07:09:13;-1.50;78.60
64209;DHT22;50527;52.414;13.226;2024-01-07T07:11:40;-1.50;78.60
64209;DHT22;50527;52.414;13.226;2024-01-07T07:14:05;-1.50;79.00
64209;DHT22;50527;52.414;13.226;2024-01-07T07:16:31;-1.40;78.40
64209;DHT22;50527;52.414;13.226;2024-01-07T07:18:57;-1.50;77.40
64209;DHT22;50527;52.414;13.226;2024-01-07T07:21:22;-1.50;77.60
64209;DHT22;50527;52.414;13.226;2024-01-07T07:23:48;-1.40;77.90
64209;DHT22;50527;52.414;13.226;2024-01-07T07:26:13;-1.50;78.20
64209;DHT22;50527;52.414;13.226;2024-01-07T07:28:39;-1.50;77.80
64209;DHT22;50527;52.414;13.226;2024-01-07T07:31:04;-1.40;77.90
64209;DHT22;50527;52.414;13.226;2024-01-07T07:33:30;-1.40;77.10
64209;DHT22;50527;52.414;13.226;2024-01-07T07:35:55;-1.40;77.50
64209;DHT22;50527;52.414;13.226;2024-01-07T07:38:21;-1.40;77.70
64209;DHT22;50527;52.414;13.226;2024-01-07T07:40:46;-1.30;77.40
64209;DHT22;50527;52.414;13.226;2024-01-07T07:43:19;-1.30;77.10
64209;DHT22;50527;52.414;13.226;2024-01-07T07:45:46;-1.30;77.80
64209;DHT22;50527;52.414;13.226;2024-01-07T07:48:11;-1.30;77.10
64209;DHT22;50527;52.414;13.226;2024-01-07T07:50:37;-1.20;77.70
64209;DHT22;50527;52.414;13.226;2024-01-07T07:53:02;-1.20;77.50
64209;DHT22;50527;52.414;13.226;2024-01-07T07:55:28;-1.20;78.10
64209;DHT22;50527;52.414;13.226;2024-01-07T07:57:53;-1.10;78.50
64209;DHT22;50527;52.414;13.226;2024-01-07T08:00:19;-1.10;79.00
64209;DHT22;50527;52.414;13.226;2024-01-07T08:02:45;-1.00;78.40
64209;DHT22;50527;52.414;13.226;2024-01-07T08:05:11;-1.00;77.90
64209;DHT22;50527;52.414;13.226;2024-01-07T08:07:36;-0.90;77.40
64209;DHT22;50527;52.414;13.226;2024-01-07T08:10:02;-0.90;76.40
64209;DHT22;50527;52.414;13.226;2024-01-07T08:12:28;-0.90;77.80
64209;DHT22;50527;52.414;13.226;2024-01-07T08:14:53;-0.90;77.70
64209;DHT22;50527;52.414;13.226;2024-01-07T08:17:19;-0.90;77.00
64209;DHT22;50527;52.414;13.226;2024-01-07T08:19:44;-0.90;76.10
64209;DHT22;50527;52.414;13.226;2024-01-07T08:22:10;-0.90;76.40
64209;DHT22;50527;52.414;13.226;2024-01-07T08:24:35;-0.90;77.10
64209;DHT22;50527;52.414;13.226;2024-01-07T08:27:01;-0.80;76.60
64209;DHT22;50527;52.414;13.226;2024-01-07T08:29:28;-0.80;76.90
64209;DHT22;50527;52.414;13.226;2024-01-07T08:31:54;-0.90;75.80
64209;DHT22;50527;52.414;13.226;2024-01-07T08:34:19;-0.80;76.70
64209;DHT22;50527;52.414;13.226;2024-01-07T08:36:44;-0.90;76.80
64209;DHT22;50527;52.414;13.226;2024-01-07T08:39:10;-0.80;76.90
64209;DHT22;50527;52.414;13.226;2024-01-07T08:41:36;-0.80;76.80
64209;DHT22;50527;52.414;13.226;2024-01-07T08:44:01;-0.70;76.40
64209;DHT22;50527;52.414;13.226;2024-01-07T08:46:27;-0.80;77.20
64209;DHT22;50527;52.414;13.226;2024-01-07T08:48:53;-0.70;77.80
64209;DHT22;50527;52.414;13.226;2024-01-07T08:51:18;-0.60;77.20
64209;DHT22;50527;52.414;13.226;2024-01-07T08:53:44;-0.60;76.80
64209;DHT22;50527;52.414;13.226;2024-01-07T08:56:09;-0.50;77.00
64209;DHT22;50527;52.414;13.226;2024-01-07T08:58:35;-0.50;76.80
64209;DHT22;50527;52.414;13.226;2024-01-07T09:01:00;-0.40;78.70
64209;DHT22;50527;52.414;13.226;2024-01-07T09:03:26;-0.40;76.80
64209;DHT22;50527;52.414;13.226;2024-01-07T09:05:51;-0.30;79.00
64209;DHT22;50527;52.414;13.226;2024-01-07T09:08:17;-0.20;78.20
64209;DHT22;50527;52.414;13.226;2024-01-07T09:10:42;-0.20;76.80
64209;DHT22;50527;52.414;13.226;2024-01-07T09:13:08;-0.20;78.90
64209;DHT22;50527;52.414;13.226;2024-01-07T09:15:33;-0.10;78.40
64209;DHT22;50527;52.414;13.226;2024-01-07T09:17:59;-0.10;77.70
64209;DHT22;50527;52.414;13.226;2024-01-07T09:20:24;0.00;77.40
64209;DHT22;50527;52.414;13.226;2024-01-07T09:22:50;0.00;77.10
64209;DHT22;50527;52.414;13.226;2024-01-07T09:25:15;0.10;77.60
64209;DHT22;50527;52.414;13.226;2024-01-07T09:27:42;0.10;77.30
64209;DHT22;50527;52.414;13.226;2024-01-07T09:30:09;0.10;76.70
64209;DHT22;50527;52.414;13.226;2024-01-07T09:32:36;0.10;76.10
64209;DHT22;50527;52.414;13.226;2024-01-07T09:35:02;0.10;76.90
64209;DHT22;50527;52.414;13.226;2024-01-07T09:37:29;0.10;77.10
64209;DHT22;50527;52.414;13.226;2024-01-07T09:39:54;0.10;78.10
64209;DHT22;50527;52.414;13.226;2024-01-07T09:42:20;0.20;79.00
64209;DHT22;50527;52.414;13.226;2024-01-07T09:44:45;0.30;79.70
64209;DHT22;50527;52.414;13.226;2024-01-07T09:47:12;0.20;77.00
64209;DHT22;50527;52.414;13.226;2024-01-07T09:49:39;0.30;77.40
64209;DHT22;50527;52.414;13.226;2024-01-07T09:52:05;0.20;77.00
64209;DHT22;50527;52.414;13.226;2024-01-07T09:54:31;0.30;79.20
64209;DHT22;50527;52.414;13.226;2024-01-07T09:57:04;0.40;80.10
64209;DHT22;50527;52.414;13.226;2024-01-07T09:59:32;0.40;81.70
64209;DHT22;50527;52.414;13.226;2024-01-07T10:01:58;0.40;77.70
64209;DHT22;50527;52.414;13.226;2024-01-07T10:04:24;0.30;78.40
64209;DHT22;50527;52.414;13.226;2024-01-07T10:06:50;0.40;78.10
64209;DHT22;50527;52.414;13.226;2024-01-07T10:09:17;0.40;80.40
64209;DHT22;50527;52.414;13.226;2024-01-07T10:11:43;0.40;79.20
64209;DHT22;50527;52.414;13.226;2024-01-07T10:14:09;0.30;78.80
64209;DHT22;50527;52.414;13.226;2024-01-07T10:16:35;0.40;80.00
64209;DHT22;50527;52.414;13.226;2024-01-07T10:19:00;0.30;79.70
64209;DHT22;50527;52.414;13.226;2024-01-07T10:21:26;0.30;80.30
64209;DHT22;50527;52.414;13.226;2024-01-07T10:24:07;0.20;80.40
64209;DHT22;50527;52.414;13.226;2024-01-07T10:26:34;0.20;80.10
64209;DHT22;50527;52.414;13.226;2024-01-07T10:29:00;0.20;81.60
64209;DHT22;50527;52.414;13.226;2024-01-07T10:31:25;0.30;82.20
64209;DHT22;50527;52.414;13.226;2024-01-07T10:33:52;0.30;82.00
64209;DHT22;50527;52.414;13.226;2024-01-07T10:36:18;0.30;82.50
64209;DHT22;50527;52.414;13.226;2024-01-07T10:38:45;0.30;81.10
64209;DHT22;50527;52.414;13.226;2024-01-07T10:41:11;0.30;82.00
64209;DHT22;50527;52.414;13.226;2024-01-07T10:43:39;0.40;83.20
64209;DHT22;50527;52.414;13.226;2024-01-07T10:46:06;0.50;82.60
64209;DHT22;50527;52.414;13.226;2024-01-07T10:48:37;0.40;82.40
64209;DHT22;50527;52.414;13.226;2024-01-07T10:51:03;0.50;83.20
64209;DHT22;50527;52.414;13.226;2024-01-07T10:53:33;0.50;83.60
64209;DHT22;50527;52.414;13.226;2024-01-07T10:56:03;0.60;84.70
64209;DHT22;50527;52.414;13.226;2024-01-07T10:58:33;0.50;82.50
64209;DHT22;50527;52.414;13.226;2024-01-07T11:01:01;0.50;82.10
64209;DHT22;50527;52.414;13.226;2024-01-07T11:04:10;0.50;83.60
64209;DHT22;50527;52.414;13.226;2024-01-07T11:06:57;0.50;84.70
64209;DHT22;50527;52.414;13.226;2024-01-07T11:09:39;0.50;83.50
64209;DHT22;50527;52.414;13.226;2024-01-07T11:12:10;0.60;85.10
64209;DHT22;50527;52.414;13.226;2024-01-07T11:14:38;0.50;83.70
64209;DHT22;50527;52.414;13.226;2024-01-07T11:17:10;0.60;84.40
64209;DHT22;50527;52.414;13.226;2024-01-07T11:19:36;0.60;84.90
64209;DHT22;50527;52.414;13.226;2024-01-07T11:22:31;0.60;84.90
64209;DHT22;50527;52.414;13.226;2024-01-07T11:24:59;0.60;84.30
64209;DHT22;50527;52.414;13.226;2024-01-07T11:27:29;0.60;84.80
64209;DHT22;50527;52.414;13.226;2024-01-07T11:29:58;0.60;83.90
64209;DHT22;50527;52.414;13.226;2024-01-07T11:32:33;0.60;85.10
64209;DHT22;50527;52.414;13.226;2024-01-07T11:35:00;0.50;85.10
64209;DHT22;50527;52.414;13.226;2024-01-07T11:37:25;0.60;86.10
64209;DHT22;50527;52.414;13.226;2024-01-07T11:39:55;0.60;86.10
64209;DHT22;50527;52.414;13.226;2024-01-07T11:42:22;0.60;84.40
64209;DHT22;50527;52.414;13.226;2024-01-07T11:44:54;0.60;85.70
64209;DHT22;50527;52.414;13.226;2024-01-07T11:47:22;0.70;87.80
64209;DHT22;50527;52.414;13.226;2024-01-07T11:49:48;0.70;87.10
64209;DHT22;50527;52.414;13.226;2024-01-07T11:52:16;0.80;87.60
64209;DHT22;50527;52.414;13.226;2024-01-07T11:54:42;0.80;87.40
64209;DHT22;50527;52.414;13.226;2024-01-07T11:57:09;0.80;86.20
64209;DHT22;50527;52.414;13.226;2024-01-07T11:59:35;0.70;85.50
64209;DHT22;50527;52.414;13.226;2024-01-07T12:02:10;0.80;86.10
64209;DHT22;50527;52.414;13.226;2024-01-07T12:04:36;0.70;86.00
64209;DHT22;50527;52.414;13.226;2024-01-07T12:07:01;0.80;87.10
64209;DHT22;50527;52.414;13.226;2024-01-07T12:09:28;0.80;87.50
64209;DHT22;50527;52.414;13.226;2024-01-07T12:11:54;0.90;89.20
64209;DHT22;50527;52.414;13.226;2024-01-07T12:14:20;0.90;88.40
64209;DHT22;50527;52.414;13.226;2024-01-07T12:16:46;0.90;88.90
64209;DHT22;50527;52.414;13.226;2024-01-07T12:19:12;0.90;88.30
64209;DHT22;50527;52.414;13.226;2024-01-07T12:21:38;0.90;89.30
64209;DHT22;50527;52.414;13.226;2024-01-07T12:24:04;1.00;89.70
64209;DHT22;50527;52.414;13.226;2024-01-07T12:26:30;1.00;88.80
64209;DHT22;50527;52.414;13.226;2024-01-07T12:28:58;1.00;90.30
64209;DHT22;50527;52.414;13.226;2024-01-07T12:31:32;1.00;89.40
64209;DHT22;50527;52.414;13.226;2024-01-07T12:33:58;1.00;89.10
64209;DHT22;50527;52.414;13.226;2024-01-07T12:36:25;0.90;88.30
64209;DHT22;50527;52.414;13.226;2024-01-07T12:38:52;1.00;89.10
64209;DHT22;50527;52.414;13.226;2024-01-07T12:41:22;1.00;88.50
64209;DHT22;50527;52.414;13.226;2024-01-07T12:43:48;0.90;88.30
64209;DHT22;50527;52.414;13.226;2024-01-07T12:46:13;0.90;89.10
64209;DHT22;50527;52.414;13.226;2024-01-07T12:48:40;1.00;90.40
64209;DHT22;50527;52.414;13.226;2024-01-07T12:51:05;1.00;90.00
64209;DHT22;50527;52.414;13.226;2024-01-07T12:53:31;1.00;90.00
64209;DHT22;50527;52.414;13.226;2024-01-07T12:55:56;1.00;89.00
64209;DHT22;50527;52.414;13.226;2024-01-07T12:58:22;1.10;90.20
64209;DHT22;50527;52.414;13.226;2024-01-07T13:00:47;1.20;90.00
64209;DHT22;50527;52.414;13.226;2024-01-07T13:03:13;1.10;89.40
64209;DHT22;50527;52.414;13.226;2024-01-07T13:05:43;1.10;89.40
64209;DHT22;50527;52.414;13.226;2024-01-07T13:08:09;1.10;90.10
64209;DHT22;50527;52.414;13.226;2024-01-07T13:10:34;1.10;90.80
64209;DHT22;50527;52.414;13.226;2024-01-07T13:13:00;1.10;90.10
64209;DHT22;50527;52.414;13.226;2024-01-07T13:15:25;1.10;90.30
64209;DHT22;50527;52.414;13.226;2024-01-07T13:17:51;1.10;90.40
64209;DHT22;50527;52.414;13.226;2024-01-07T13:20:16;1.10;90.60
64209;DHT22;50527;52.414;13.226;2024-01-07T13:22:48;1.10;90.80
64209;DHT22;50527;52.414;13.226;2024-01-07T13:25:14;1.10;90.70
64209;DHT22;50527;52.414;13.226;2024-01-07T13:27:39;1.10;91.00
64209;DHT22;50527;52.414;13.226;2024-01-07T13:30:06;1.20;91.20
64209;DHT22;50527;52.414;13.226;2024-01-07T13:32:31;1.20;91.30
64209;DHT22;50527;52.414;13.226;2024-01-07T13:35:05;1.20;92.10
64209;DHT22;50527;52.414;13.226;2024-01-07T13:37:31;1.20;91.60
64209;DHT22;50527;52.414;13.226;2024-01-07T13:39:56;1.20;91.40
64209;DHT22;50527;52.414;13.226;2024-01-07T13:42:22;1.20;91.10
64209;DHT22;50527;52.414;13.226;2024-01-07T13:44:48;1.20;91.10
64209;DHT22;50527;52.414;13.226;2024-01-07T13:47:13;1.20;91.40
64209;DHT22;50527;52.414;13.226;2024-01-07T13:49:42;1.20;91.50
64209;DHT22;50527;52.414;13.226;2024-01-07T13:52:10;1.30;92.00
64209;DHT22;50527;52.414;13.226;2024-01-07T13:54:35;1.20;92.50
64209;DHT22;50527;52.414;13.226;2024-01-07T13:57:01;1.20;91.40
64209;DHT22;50527;52.414;13.226;2024-01-07T13:59:26;1.20;92.00
64209;DHT22;50527;52.414;13.226;2024-01-07T14:01:52;1.20;91.80
64209;DHT22;50527;52.414;13.226;2024-01-07T14:04:18;1.20;91.90
64209;DHT22;50527;52.414;13.226;2024-01-07T14:06:43;1.20;92.30
64209;DHT22;50527;52.414;13.226;2024-01-07T14:09:09;1.20;91.80
64209;DHT22;50527;52.414;13.226;2024-01-07T14:11:34;1.20;91.90
64209;DHT22;50527;52.414;13.226;2024-01-07T14:14:01;1.10;92.00
64209;DHT22;50527;52.414;13.226;2024-01-07T14:16:27;1.20;92.30
64209;DHT22;50527;52.414;13.226;2024-01-07T14:18:53;1.10;92.30
64209;DHT22;50527;52.414;13.226;2024-01-07T14:21:19;1.10;92.30
64209;DHT22;50527;52.414;13.226;2024-01-07T14:23:44;1.10;92.60
64209;DHT22;50527;52.414;13.226;2024-01-07T14:26:10;1.10;93.70
64209;DHT22;50527;52.414;13.226;2024-01-07T14:28:35;1.10;94.20
64209;DHT22;50527;52.414;13.226;2024-01-07T14:31:01;1.10;93.40
64209;DHT22;50527;52.414;13.226;2024-01-07T14:33:28;1.10;93.50
64209;DHT22;50527;52.414;13.226;2024-01-07T14:35:54;1.20;93.40
64209;DHT22;50527;52.414;13.226;2024-01-07T14:38:19;1.10;92.80
64209;DHT22;50527;52.414;13.226;2024-01-07T14:40:45;1.00;92.80
64209;DHT22;50527;52.414;13.226;2024-01-07T14:43:12;1.00;92.70
64209;DHT22;50527;52.414;13.226;2024-01-07T14:45:37;1.00;92.80
64209;DHT22;50527;52.414;13.226;2024-01-07T14:48:03;1.00;92.90
64209;DHT22;50527;52.414;13.226;2024-01-07T14:50:29;1.10;94.00
64209;DHT22;50527;52.414;13.226;2024-01-07T14:52:54;1.10;94.10
64209;DHT22;50527;52.414;13.226;2024-01-07T14:55:20;1.10;92.90
64209;DHT22;50527;52.414;13.226;2024-01-07T14:57:45;1.10;92.50
64209;DHT22;50527;52.414;13.226;2024-01-07T15:00:11;1.00;92.50
64209;DHT22;50527;52.414;13.226;2024-01-07T15:02:37;1.10;92.90
64209;DHT22;50527;52.414;13.226;2024-01-07T15:05:03;1.10;92.50
64209;DHT22;50527;52.414;13.226;2024-01-07T15:07:29;1.10;92.30
64209;DHT22;50527;52.414;13.226;2024-01-07T15:09:54;1.10;92.20
64209;DHT22;50527;52.414;13.226;2024-01-07T15:12:20;1.10;92.10
64209;DHT22;50527;52.414;13.226;2024-01-07T15:14:45;1.10;92.00
64209;DHT22;50527;52.414;13.226;2024-01-07T15:17:11;1.10;91.70